Time;durP1;ratioP1;P1;durP2;ratioP2;P2;SDS_P1;SDS_P2;PMS_P1;PMS_P2;Temp;Humidity;BMP_temperature;BMP_pressure;BME280_temperature;BME280_humidity;BME280_pressure;Samples;Min_cycle;Max_cycle;Signal;HPM_P1;HPM_P2
2022/10/25 00:01:42;;;;;;;;;;;;;;;21.25;67.20;99262.28;7310461;19;130290;-41
2022/10/25 00:04:07;;;;;;;;;;;;;;;21.24;67.02;99263.25;7309169;19;129083;-36
2022/10/25 00:06:32;;;;;;;;;;;;;;;21.20;66.99;99259.28;7311671;19;128996;-41
2022/10/25 00:08:57;;;;;;;;;;;;;;;21.23;66.47;99255.53;7307140;19;130220;-41
2022/10/25 00:11:24;;;;;;;;;;;;;;;21.21;67.02;99255.69;7311014;19;130278;-41
2022/10/25 00:13:51;;;;;;;;;;;;;;;21.25;66.60;99262.28;7306725;19;130365;-39
2022/10/25 00:16:18;;;;;;;;;;;;;;;21.22;67.01;99257.31;7311800;19;129284;-41
2022/10/25 00:18:43;;;;;;;;;;;;;;;21.15;66.33;99245.81;7308243;19;129644;-40
2022/10/25 00:21:08;;;;;;;;;;;;;;;21.25;67.10;99262.28;7310797;19;129158;-39
2022/10/25 00:23:34;;;;;;;;;;;;;;;21.26;67.05;99265.69;7309715;19;130397;-39
2022/10/25 00:26:03;;;;;;;;;;;;;;;21.25;66.70;99267.50;7310969;19;129021;-42
2022/10/25 00:28:28;;;;;;;;;;;;;;;21.27;66.52;99264.75;7310164;19;131351;-41
2022/10/25 00:31:00;;;;;;;;;;;;;;;21.24;66.35;99265.03;7308201;19;130853;-42
2022/10/25 00:33:27;;;;;;;;;;;;;;;21.22;66.65;99265.16;7309528;19;129706;-42
2022/10/25 00:35:52;;;;;;;;;;;;;;;21.23;66.92;99266.00;7308335;19;129159;-40
2022/10/25 00:38:18;;;;;;;;;;;;;;;21.21;67.17;99266.16;7314780;19;129676;-42
2022/10/25 00:40:43;;;;;;;;;;;;;;;21.24;66.61;99276.31;7315909;19;129766;-42
2022/10/25 00:43:08;;;;;;;;;;;;;;;21.14;66.73;99265.06;7317047;19;128936;-40
2022/10/25 00:45:34;;;;;;;;;;;;;;;21.22;66.97;99273.00;7316800;19;130739;-41
2022/10/25 00:47:59;;;;;;;;;;;;;;;21.25;66.49;99275.38;7315208;19;129190;-42
2022/10/25 00:50:31;;;;;;;;;;;;;;;21.24;66.89;99268.47;7316193;19;132629;-41
2022/10/25 00:53:00;;;;;;;;;;;;;;;21.23;66.57;99279.91;7314483;19;129032;-39
2022/10/25 00:55:26;;;;;;;;;;;;;;;21.23;66.87;99284.31;7316596;19;130557;-41
2022/10/25 00:58:01;;;;;;;;;;;;;;;21.24;66.61;99278.94;7315856;19;129448;-39
2022/10/25 01:00:26;;;;;;;;;;;;;;;21.23;66.47;99277.28;7316202;19;129898;-41
2022/10/25 01:02:52;;;;;;;;;;;;;;;21.25;67.07;99283.19;7316992;19;129751;-42
2022/10/25 01:05:18;;;;;;;;;;;;;;;21.26;66.86;99281.41;7315333;19;128944;-39
2022/10/25 01:07:44;;;;;;;;;;;;;;;21.23;66.53;99272.06;7316333;19;129521;-41
2022/10/25 01:10:09;;;;;;;;;;;;;;;21.23;66.89;99287.75;7313468;19;129505;-39
2022/10/25 01:12:34;;;;;;;;;;;;;;;21.26;67.11;99279.59;7316473;19;129930;-42
2022/10/25 01:15:04;;;;;;;;;;;;;;;21.25;66.85;99272.75;7312579;19;130120;-40
2022/10/25 01:17:38;;;;;;;;;;;;;;;21.25;66.46;99272.75;7315764;19;131062;-40
2022/10/25 01:20:06;;;;;;;;;;;;;;;21.23;67.11;99264.22;7314502;19;129649;-41
2022/10/25 01:22:37;;;;;;;;;;;;;;;21.24;66.95;99249.34;7315700;19;129813;-41
2022/10/25 01:25:20;;;;;;;;;;;;;;;21.23;67.23;99259.00;7314739;19;128986;-40
2022/10/25 01:28:04;;;;;;;;;;;;;;;21.26;66.54;99245.63;7316293;19;130585;-39
2022/10/25 01:30:29;;;;;;;;;;;;;;;21.15;67.25;99230.13;7315818;19;129952;-40
2022/10/25 01:32:57;;;;;;;;;;;;;;;21.28;67.07;99246.31;7316244;19;129686;-41
2022/10/25 01:35:28;;;;;;;;;;;;;;;21.13;66.92;99229.47;7314899;19;130785;-42
2022/10/25 01:37:59;;;;;;;;;;;;;;;21.25;66.67;99254.44;7313983;19;129691;-42
2022/10/25 01:40:31;;;;;;;;;;;;;;;21.15;67.05;99237.97;7313980;19;129408;-39
2022/10/25 01:43:06;;;;;;;;;;;;;;;21.24;67.14;99255.41;7315680;19;129297;-41
2022/10/25 01:45:54;;;;;;;;;;;;;;;21.21;67.26;99258.31;7314868;19;129596;-41
2022/10/25 01:48:29;;;;;;;;;;;;;;;21.21;66.89;99260.91;7313320;19;130514;-42
2022/10/25 01:51:02;;;;;;;;;;;;;;;21.26;67.13;99258.69;7313305;19;129733;-41
2022/10/25 01:53:28;;;;;;;;;;;;;;;21.24;66.69;99265.03;7314926;19;129129;-42
2022/10/25 01:55:55;;;;;;;;;;;;;;;21.24;66.73;99263.25;7313330;19;129491;-42
2022/10/25 01:58:24;;;;;;;;;;;;;;;21.23;66.63;99261.59;7315197;19;131278;-39
2022/10/25 02:01:06;;;;;;;;;;;;;;;21.24;66.95;99268.47;7314687;19;129606;-41
2022/10/25 02:03:34;;;;;;;;;;;;;;;21.25;66.75;99257.06;7316259;19;129690;-42
2022/10/25 02:06:00;;;;;;;;;;;;;;;21.24;66.73;99271.09;7314224;19;129351;-42
2022/10/25 02:08:25;;;;;;;;;;;;;;;21.27;66.99;99264.75;7313599;19;129505;-40
2022/10/25 02:11:09;;;;;;;;;;;;;;;21.26;66.35;99271.75;7315511;19;130114;-41
2022/10/25 02:13:53;;;;;;;;;;;;;;;21.29;67.08;99278.47;7313803;19;129461;-40
2022/10/25 02:16:21;;;;;;;;;;;;;;;21.26;67.17;99269.16;7315386;19;129226;-41
2022/10/25 02:18:48;;;;;;;;;;;;;;;21.19;66.86;99260.22;7313221;19;129607;-40
2022/10/25 02:21:15;;;;;;;;;;;;;;;21.17;66.90;99249.09;7315196;19;129457;-42
2022/10/25 02:23:41;;;;;;;;;;;;;;;21.26;66.30;99263.91;7314501;19;129026;-40
2022/10/25 02:26:08;;;;;;;;;;;;;;;21.24;66.71;99271.09;7316105;19;130014;-42
2022/10/25 02:28:34;;;;;;;;;;;;;;;21.23;66.65;99266.84;7312489;19;129476;-39
2022/10/25 02:31:00;;;;;;;;;;;;;;;21.18;66.49;99255.16;7315164;19;130504;-41
2022/10/25 02:33:25;;;;;;;;;;;;;;;21.27;67.23;99276.00;7312897;19;129166;-38
2022/10/25 02:36:09;;;;;;;;;;;;;;;21.26;67.18;99268.31;7313963;19;130907;-42
2022/10/25 02:38:34;;;;;;;;;;;;;;;21.25;66.77;99266.69;7313327;19;130092;-41
2022/10/25 02:41:01;;;;;;;;;;;;;;;21.26;67.17;99269.16;7314362;19;130230;-41
2022/10/25 02:43:26;;;;;;;;;;;;;;;21.25;67.27;99261.47;7313446;19;129091;-41
2022/10/25 02:45:52;;;;;;;;;;;;;;;21.25;67.19;99267.50;7313836;19;129767;-41
2022/10/25 02:48:17;;;;;;;;;;;;;;;21.25;67.15;99264.91;7312766;19;129590;-39
2022/10/25 02:50:42;;;;;;;;;;;;;;;21.26;66.69;99277.00;7313088;19;131656;-41
2022/10/25 02:53:07;;;;;;;;;;;;;;;21.24;66.88;99273.69;7312770;19;129576;-42
2022/10/25 02:55:33;;;;;;;;;;;;;;;21.22;67.17;99270.41;7311336;19;128947;-40
2022/10/25 02:57:58;;;;;;;;;;;;;;;21.22;67.10;99273.00;7312388;19;129276;-40
2022/10/25 03:00:23;;;;;;;;;;;;;;;21.15;66.66;99247.59;7311616;19;129650;-40
2022/10/25 03:02:48;;;;;;;;;;;;;;;21.27;66.76;99269.97;7311876;19;130829;-39
2022/10/25 03:05:13;;;;;;;;;;;;;;;21.26;66.93;99274.38;7314310;19;129052;-42
2022/10/25 03:07:39;;;;;;;;;;;;;;;21.22;66.92;99270.41;7312586;19;130440;-40
2022/10/25 03:10:04;;;;;;;;;;;;;;;21.24;67.35;99278.09;7313856;19;129911;-39
2022/10/25 03:12:30;;;;;;;;;;;;;;;21.24;66.67;99276.31;7313324;19;128744;-40
2022/10/25 03:14:55;;;;;;;;;;;;;;;21.26;67.01;99279.59;7312064;19;129008;-41
2022/10/25 03:17:20;;;;;;;;;;;;;;;21.27;66.93;99281.25;7312544;19;129182;-40
2022/10/25 03:19:45;;;;;;;;;;;;;;;21.26;66.74;99274.38;7312934;19;129411;-40
2022/10/25 03:22:10;;;;;;;;;;;;;;;21.27;66.53;99289.09;7313526;19;128896;-38
2022/10/25 03:24:36;;;;;;;;;;;;;;;21.25;66.79;99282.38;7313051;19;128852;-41
2022/10/25 03:27:01;;;;;;;;;;;;;;;21.26;66.71;99282.22;7313181;19;129249;-39
2022/10/25 03:29:26;;;;;;;;;;;;;;;21.25;67.08;99283.19;7310638;19;129434;-41
2022/10/25 03:31:51;;;;;;;;;;;;;;;21.27;67.08;99286.47;7312528;19;129422;-39
2022/10/25 03:34:17;;;;;;;;;;;;;;;21.26;67.17;99284.84;7312079;19;129265;-41
2022/10/25 03:36:42;;;;;;;;;;;;;;;21.23;66.73;99290.38;7311936;19;130303;-41
2022/10/25 03:39:07;;;;;;;;;;;;;;;21.25;66.58;99298.06;7310416;19;130738;-40
2022/10/25 03:41:32;;;;;;;;;;;;;;;21.23;67.09;99303.44;7312660;19;129589;-41
2022/10/25 03:43:57;;;;;;;;;;;;;;;21.25;66.86;99298.88;7312596;19;129757;-40
2022/10/25 03:46:23;;;;;;;;;;;;;;;21.24;66.63;99297.22;7312575;19;130546;-38
2022/10/25 03:48:48;;;;;;;;;;;;;;;21.23;67.09;99300.81;7311179;19;130331;-39
2022/10/25 03:51:13;;;;;;;;;;;;;;;21.23;67.33;99306.06;7314565;19;129507;-39
2022/10/25 03:53:38;;;;;;;;;;;;;;;21.22;66.89;99309.63;7311933;19;129814;-41
2022/10/25 03:56:04;;;;;;;;;;;;;;;21.17;66.76;99296.16;7309237;19;130363;-41
2022/10/25 03:58:29;;;;;;;;;;;;;;;21.25;66.84;99314.59;7310835;19;129560;-37
2022/10/25 04:00:54;;;;;;;;;;;;;;;21.24;66.68;99326.00;7312207;19;130217;-41
2022/10/25 04:03:19;;;;;;;;;;;;;;;21.25;66.64;99318.97;7310943;19;129173;-39
2022/10/25 04:05:45;;;;;;;;;;;;;;;21.25;66.79;99322.41;7311681;19;129899;-39
2022/10/25 04:08:10;;;;;;;;;;;;;;;21.26;66.52;99320.59;7311053;19;129996;-40
2022/10/25 04:10:35;;;;;;;;;;;;;;;21.22;67.13;99327.91;7311910;19;129361;-42
2022/10/25 04:13:00;;;;;;;;;;;;;;;21.24;66.72;99328.59;7310636;19;130111;-41
2022/10/25 04:15:26;;;;;;;;;;;;;;;21.24;67.05;99328.59;7308218;19;130962;-40
2022/10/25 04:17:51;;;;;;;;;;;;;;;21.24;66.64;99333.81;7310709;19;130345;-41
2022/10/25 04:20:17;;;;;;;;;;;;;;;21.22;66.98;99330.53;7311424;19;129552;-41
2022/10/25 04:22:42;;;;;;;;;;;;;;;21.24;66.71;99336.44;7309974;19;129247;-39
2022/10/25 04:25:07;;;;;;;;;;;;;;;21.23;66.62;99337.44;7310169;19;130969;-39
2022/10/25 04:27:33;;;;;;;;;;;;;;;21.14;66.98;99319.97;7311333;19;130826;-41
2022/10/25 04:29:58;;;;;;;;;;;;;;;21.22;66.81;99332.34;7309394;19;129003;-37
2022/10/25 04:32:23;;;;;;;;;;;;;;;21.14;66.65;99312.13;7310092;19;129097;-40
2022/10/25 04:34:48;;;;;;;;;;;;;;;21.26;67.15;99341.53;7309559;19;129459;-40
2022/10/25 04:37:14;;;;;;;;;;;;;;;21.24;66.80;99333.81;7310420;19;130820;-39
2022/10/25 04:39:39;;;;;;;;;;;;;;;21.28;66.38;99334.38;7311593;19;128853;-41
2022/10/25 04:42:04;;;;;;;;;;;;;;;21.21;67.26;99323.66;7309280;19;130603;-41
2022/10/25 04:44:29;;;;;;;;;;;;;;;21.26;66.92;99337.13;7311215;19;131354;-41
2022/10/25 04:46:54;;;;;;;;;;;;;;;21.26;66.38;99333.69;7310454;19;129848;-39
2022/10/25 04:49:20;;;;;;;;;;;;;;;21.18;66.97;99323.97;7308651;19;128726;-41
2022/10/25 04:51:45;;;;;;;;;;;;;;;21.28;67.11;99345.66;7310921;19;129594;-41
2022/10/25 04:54:11;;;;;;;;;;;;;;;21.25;67.01;99340.72;7310317;19;130479;-40
2022/10/25 04:56:36;;;;;;;;;;;;;;;21.27;67.34;99337.97;7311797;19;130394;-41
2022/10/25 04:59:02;;;;;;;;;;;;;;;21.14;67.18;99319.97;7309048;19;129723;-38
2022/10/25 05:01:27;;;;;;;;;;;;;;;21.24;67.09;99331.22;7309436;19;129224;-34
2022/10/25 05:03:52;;;;;;;;;;;;;;;21.25;67.03;99332.03;7311391;19;129673;-40
2022/10/25 05:06:19;;;;;;;;;;;;;;;21.26;66.89;99336.28;7309593;19;129417;-40
2022/10/25 05:08:49;;;;;;;;;;;;;;;21.24;66.98;99331.22;7308432;19;129098;-41
2022/10/25 05:11:14;;;;;;;;;;;;;;;21.24;66.77;99333.81;7309965;19;129660;-41
2022/10/25 05:13:40;;;;;;;;;;;;;;;21.25;66.67;99335.50;7310252;19;130096;-40
2022/10/25 05:16:06;;;;;;;;;;;;;;;21.24;66.81;99336.44;7308714;19;129439;-41
2022/10/25 05:18:32;;;;;;;;;;;;;;;21.27;66.82;99338.75;7308301;19;129620;-39
2022/10/25 05:20:58;;;;;;;;;;;;;;;21.25;66.92;99345.13;7310053;19;129755;-38
2022/10/25 05:23:25;;;;;;;;;;;;;;;21.23;66.92;99342.66;7309032;19;130598;-40
2022/10/25 05:26:19;;;;;;;;;;;;;;;21.26;66.47;99347.59;7314598;19;130045;-41
2022/10/25 05:28:45;;;;;;;;;;;;;;;21.25;66.98;99351.19;7313672;19;129760;-41
2022/10/25 05:31:13;;;;;;;;;;;;;;;21.25;66.93;99364.25;7316908;19;129015;-39
2022/10/25 05:33:38;;;;;;;;;;;;;;;21.23;66.74;99374.03;7315337;19;130872;-40
2022/10/25 05:36:04;;;;;;;;;;;;;;;21.27;66.66;99370.13;7316755;19;129801;-40
2022/10/25 05:38:29;;;;;;;;;;;;;;;21.25;66.46;99379.94;7314859;19;129318;-40
2022/10/25 05:40:56;;;;;;;;;;;;;;;21.23;67.27;99375.81;7316282;19;129361;-41
2022/10/25 05:43:21;;;;;;;;;;;;;;;21.27;67.04;99377.19;7316276;19;130050;-40
2022/10/25 05:45:46;;;;;;;;;;;;;;;21.22;67.28;99367.13;7316564;19;130038;-40
2022/10/25 05:48:11;;;;;;;;;;;;;;;21.24;66.98;99373.03;7313870;19;129769;-40
2022/10/25 05:50:37;;;;;;;;;;;;;;;21.24;67.00;99375.66;7317126;19;129193;-41
2022/10/25 05:53:02;;;;;;;;;;;;;;;21.23;66.90;99381.88;7314541;19;129909;-39
2022/10/25 05:55:27;;;;;;;;;;;;;;;21.22;67.04;99385.44;7312063;19;130128;-39
2022/10/25 05:57:52;;;;;;;;;;;;;;;21.27;66.77;99385.03;7311525;19;130351;-38
2022/10/25 06:00:18;;;;;;;;;;;;;;;21.24;66.92;99388.72;7313186;19;129880;-35
2022/10/25 06:02:43;;;;;;;;;;;;;;;21.24;67.31;99391.34;7315573;19;131126;-37
2022/10/25 06:05:08;;;;;;;;;;;;;;;21.26;66.82;99388.59;7316950;19;130234;-41
2022/10/25 06:07:33;;;;;;;;;;;;;;;21.25;67.16;99400.84;7314664;19;129877;-41
2022/10/25 06:09:59;;;;;;;;;;;;;;;21.26;67.14;99402.50;7316021;19;129149;-38
2022/10/25 06:12:24;;;;;;;;;;;;;;;21.22;67.77;99403.72;7313417;19;129180;-40
2022/10/25 06:14:49;;;;;;;;;;;;;;;21.22;66.47;99402.94;7313257;19;129013;-39
2022/10/25 06:17:14;;;;;;;;;;;;;;;21.28;66.30;99402.34;7313059;19;129063;-41
2022/10/25 06:19:39;;;;;;;;;;;;;;;21.28;66.34;99403.19;7314424;19;129439;-40
2022/10/25 06:22:05;;;;;;;;;;;;;;;21.30;66.17;99416.94;7316008;19;130407;-41
2022/10/25 06:24:30;;;;;;;;;;;;;;;21.27;66.46;99422.44;7314739;19;131050;-42
2022/10/25 06:26:55;;;;;;;;;;;;;;;21.26;66.76;99425.19;7314640;19;129241;-39
2022/10/25 06:29:20;;;;;;;;;;;;;;;21.25;66.49;99419.16;7313992;19;129988;-41
2022/10/25 06:31:46;;;;;;;;;;;;;;;21.15;66.56;99407.06;7314420;19;130827;-38
2022/10/25 06:34:11;;;;;;;;;;;;;;;21.23;66.19;99415.84;7312544;19;129679;-41
2022/10/25 06:36:36;;;;;;;;;;;;;;;21.24;66.78;99427.94;7314525;19;130105;-41
2022/10/25 06:39:01;;;;;;;;;;;;;;;21.24;66.45;99427.94;7311612;19;130364;-38
2022/10/25 06:41:27;;;;;;;;;;;;;;;21.24;66.25;99430.56;7314819;19;131176;-41
2022/10/25 06:43:53;;;;;;;;;;;;;;;21.24;66.26;99422.72;7313693;19;131608;-42
2022/10/25 06:46:26;;;;;;;;;;;;;;;21.23;65.92;99426.31;7314136;19;129975;-41
2022/10/25 06:48:52;;;;;;;;;;;;;;;21.19;66.48;99413.69;7312968;19;128914;-40
2022/10/25 06:51:18;;;;;;;;;;;;;;;21.25;66.02;99429.63;7314983;19;129785;-42
2022/10/25 06:53:43;;;;;;;;;;;;;;;21.25;66.44;99434.84;7313053;19;129688;-41
2022/10/25 06:56:09;;;;;;;;;;;;;;;21.22;66.20;99434.31;7311879;19;129872;-40
2022/10/25 06:58:35;;;;;;;;;;;;;;;21.24;66.44;99432.34;7311545;19;129325;-40
2022/10/25 07:01:02;;;;;;;;;;;;;;;21.29;65.95;99436.19;7313476;19;130115;-40
2022/10/25 07:03:30;;;;;;;;;;;;;;;21.28;66.24;99444.19;7311184;19;131438;-40
2022/10/25 07:05:59;;;;;;;;;;;;;;;21.21;66.58;99443.09;7313211;19;129596;-42
2022/10/25 07:08:24;;;;;;;;;;;;;;;21.25;66.08;99453.16;7311914;19;129066;-41
2022/10/25 07:10:56;;;;;;;;;;;;;;;21.25;65.63;99442.69;7313950;19;129903;-42
2022/10/25 07:13:22;;;;;;;;;;;;;;;21.25;65.67;99440.06;7310855;19;130521;-39
2022/10/25 07:15:47;;;;;;;;;;;;;;;21.25;66.52;99434.84;7309548;19;129125;-41
2022/10/25 07:18:12;;;;;;;;;;;;;;;21.24;66.30;99433.19;7313355;19;129131;-38
2022/10/25 07:20:38;;;;;;;;;;;;;;;21.30;66.01;99432.63;7313540;19;129585;-41
2022/10/25 07:23:03;;;;;;;;;;;;;;;21.28;66.36;99429.34;7312357;19;130335;-37
2022/10/25 07:25:29;;;;;;;;;;;;;;;21.23;66.30;99444.63;7313596;19;128964;-40
2022/10/25 07:27:55;;;;;;;;;;;;;;;21.23;66.12;99442.00;7311847;19;129852;-41
2022/10/25 07:30:20;;;;;;;;;;;;;;;21.23;66.52;99438.56;7313952;19;129303;-42
2022/10/25 07:32:45;;;;;;;;;;;;;;;21.23;66.22;99447.22;7310873;19;129455;-41
2022/10/25 07:35:11;;;;;;;;;;;;;;;21.14;66.27;99424.53;7310009;19;129092;-41
2022/10/25 07:37:36;;;;;;;;;;;;;;;21.28;65.38;99445.03;7309156;19;131439;-39
2022/10/25 07:40:01;;;;;;;;;;;;;;;21.14;66.15;99434.19;7313521;19;129353;-40
2022/10/25 07:42:26;;;;;;;;;;;;;;;21.27;65.35;99443.34;7311322;19;129652;-40
2022/10/25 07:44:51;;;;;;;;;;;;;;;21.28;65.47;99450.25;7309141;19;129159;-39
2022/10/25 07:47:17;;;;;;;;;;;;;;;21.28;65.46;99454.66;7308604;19;130420;-41
2022/10/25 07:49:42;;;;;;;;;;;;;;;21.26;65.99;99454.78;7312342;19;130321;-38
2022/10/25 07:52:07;;;;;;;;;;;;;;;21.28;65.93;99455.47;7308645;19;130459;-41
2022/10/25 07:54:32;;;;;;;;;;;;;;;21.28;65.55;99450.25;7311473;19;130288;-41
2022/10/25 07:56:58;;;;;;;;;;;;;;;21.29;65.85;99457.13;7312181;19;129400;-37
2022/10/25 07:59:23;;;;;;;;;;;;;;;21.27;65.28;99448.59;7310244;19;129353;-41
2022/10/25 08:01:49;;;;;;;;;;;;;;;21.29;65.24;99445.81;7311991;19;130600;-39
2022/10/25 08:04:14;;;;;;;;;;;;;;;21.28;65.79;99449.41;7312028;19;129694;-39
2022/10/25 08:06:39;;;;;;;;;;;;;;;21.28;65.77;99458.09;7312011;19;128966;-39
2022/10/25 08:09:04;;;;;;;;;;;;;;;21.27;65.67;99466.88;7309800;19;130174;-38
2022/10/25 08:11:29;;;;;;;;;;;;;;;21.25;65.78;99457.53;7311019;19;129852;-41
2022/10/25 08:13:55;;;;;;;;;;;;;;;21.25;65.33;99460.16;7312454;19;128952;-39
2022/10/25 08:16:20;;;;;;;;;;;;;;;21.27;65.70;99469.50;7310569;19;129178;-41
2022/10/25 08:18:45;;;;;;;;;;;;;;;21.26;65.78;99473.09;7310475;19;129471;-41
2022/10/25 08:21:11;;;;;;;;;;;;;;;21.28;65.61;99480.78;7311669;19;129390;-38
2022/10/25 08:23:36;;;;;;;;;;;;;;;21.29;65.71;99457.13;7311109;19;129090;-41
2022/10/25 08:26:01;;;;;;;;;;;;;;;21.18;65.95;99448.59;7311412;19;129462;-37
2022/10/25 08:28:27;;;;;;;;;;;;;;;21.25;65.67;99465.38;7310562;19;129328;-41
2022/10/25 08:30:53;;;;;;;;;;;;;;;21.25;65.99;99473.22;7311128;19;130488;-41
2022/10/25 08:33:18;;;;;;;;;;;;;;;21.27;65.39;99469.50;7311627;19;129158;-41
2022/10/25 08:35:43;;;;;;;;;;;;;;;21.26;65.34;99467.03;7309247;19;129460;-41
2022/10/25 08:38:08;;;;;;;;;;;;;;;21.27;65.80;99471.31;7309561;19;130268;-40
2022/10/25 08:40:52;;;;;;;;;;;;;;;21.27;65.22;99474.72;7310008;19;129629;-40
2022/10/25 08:43:29;;;;;;;;;;;;;;;21.27;65.70;99466.88;7309178;19;129166;-38
2022/10/25 08:46:07;;;;;;;;;;;;;;;21.24;65.83;99464.56;7310365;19;129373;-40
2022/10/25 08:48:35;;;;;;;;;;;;;;;21.24;66.24;99469.78;7309464;19;130303;-41
2022/10/25 08:51:03;;;;;;;;;;;;;;;21.27;65.69;99474.72;7311077;19;129134;-41
2022/10/25 08:53:36;;;;;;;;;;;;;;;21.26;65.91;99483.56;7310626;19;129578;-40
2022/10/25 08:56:01;;;;;;;;;;;;;;;21.27;65.75;99474.72;7308824;19;129385;-41
2022/10/25 08:58:30;;;;;;;;;;;;;;;21.31;65.44;99481.34;7310216;19;130033;-41
2022/10/25 09:00:58;;;;;;;;;;;;;;;21.31;65.55;99480.50;7316525;19;129801;-39
2022/10/25 09:03:24;;;;;;;;;;;;;;;21.32;65.97;99482.19;7312865;19;130750;-41
2022/10/25 09:05:49;;;;;;;;;;;;;;;21.30;65.82;99478.88;7316315;19;129360;-39
2022/10/25 09:08:29;;;;;;;;;;;;;;;21.26;66.04;99483.56;7314998;19;130724;-38
2022/10/25 09:11:13;;;;;;;;;;;;;;;21.24;65.59;99485.47;7314791;19;130926;-39
2022/10/25 09:13:38;;;;;;;;;;;;;;;21.27;65.67;99479.16;7318135;19;129023;-38
2022/10/25 09:16:09;;;;;;;;;;;;;;;21.27;65.72;99485.19;7311673;19;129302;-41
2022/10/25 09:18:49;;;;;;;;;;;;;;;21.27;66.07;99479.97;7315911;19;129385;-40
2022/10/25 09:21:19;;;;;;;;;;;;;;;21.28;66.07;99492.09;7313290;19;131081;-39
2022/10/25 09:24:11;;;;;;;;;;;;;;;21.26;65.32;99494.00;7317383;19;129045;-39
2022/10/25 09:26:36;;;;;;;;;;;;;;;21.24;65.71;99495.09;7312512;19;129897;-37
2022/10/25 09:29:06;;;;;;;;;;;;;;;21.21;66.14;99485.75;7316021;19;130760;-39
2022/10/25 09:31:36;;;;;;;;;;;;;;;21.29;65.92;99509.41;7302551;19;130835;-39
2022/10/25 09:34:04;;;;;;;;;;;;;;;21.26;65.79;99504.47;7305009;19;129150;-35
2022/10/25 09:36:32;;;;;;;;;;;;;;;21.29;65.92;99509.41;7306219;19;131254;-39
2022/10/25 09:39:01;;;;;;;;;;;;;;;21.30;65.31;99516.31;7310234;19;129736;-40
2022/10/25 09:41:32;;;;;;;;;;;;;;;21.29;66.07;99514.66;7311940;19;130062;-37
2022/10/25 09:44:12;;;;;;;;;;;;;;;21.30;65.41;99512.88;7313055;19;129094;-39
2022/10/25 09:46:41;;;;;;;;;;;;;;;21.30;65.21;99521.53;7313353;19;129533;-39
2022/10/25 09:49:12;;;;;;;;;;;;;;;21.31;65.49;99520.56;7312455;19;129644;-38
2022/10/25 09:51:45;;;;;;;;;;;;;;;21.28;65.82;99513.00;7312119;19;129656;-37
2022/10/25 09:54:22;;;;;;;;;;;;;;;21.29;65.41;99512.03;7311690;19;129230;-39
2022/10/25 09:56:48;;;;;;;;;;;;;;;21.30;65.95;99520.72;7315626;19;129395;-39
2022/10/25 09:59:14;;;;;;;;;;;;;;;21.29;65.71;99524.25;7313493;19;129428;-37
2022/10/25 10:01:40;;;;;;;;;;;;;;;21.30;65.78;99529.38;7314304;19;131269;-40
2022/10/25 10:04:26;;;;;;;;;;;;;;;21.29;65.60;99519.88;7316263;19;129293;-38
2022/10/25 10:06:54;;;;;;;;;;;;;;;21.29;65.38;99524.25;7313878;19;129131;-37
2022/10/25 10:09:21;;;;;;;;;;;;;;;21.25;65.28;99518.53;7313569;19;129496;-38
2022/10/25 10:11:47;;;;;;;;;;;;;;;21.19;65.30;99508.59;7312926;19;129590;-40
2022/10/25 10:14:45;;;;;;;;;;;;;;;21.28;65.79;99527.84;7315378;19;129445;-38
2022/10/25 10:17:12;;;;;;;;;;;;;;;21.34;65.27;99519.44;7310259;19;129581;-37
2022/10/25 10:19:39;;;;;;;;;;;;;;;21.32;65.80;99519.59;7311858;19;129561;-38
2022/10/25 10:22:11;;;;;;;;;;;;;;;21.24;65.29;99501.16;7311975;19;129877;-39
2022/10/25 10:24:39;;;;;;;;;;;;;;;21.31;65.51;99519.72;7311899;19;131377;-39
2022/10/25 10:27:24;;;;;;;;;;;;;;;21.26;66.07;99514.94;7303626;19;129226;-38
2022/10/25 10:29:59;;;;;;;;;;;;;;;21.27;65.51;99521.78;7308542;19;129410;-38
2022/10/25 10:32:27;;;;;;;;;;;;;;;21.31;65.70;99520.56;7307674;19;129782;-39
2022/10/25 10:34:54;;;;;;;;;;;;;;;21.33;65.74;99534.34;7297811;19;129576;-37
2022/10/25 10:37:23;;;;;;;;;;;;;;;21.32;65.91;99534.47;7309743;19;129566;-37
2022/10/25 10:39:56;;;;;;;;;;;;;;;21.29;65.42;99530.34;7311978;19;129292;-40
2022/10/25 10:42:42;;;;;;;;;;;;;;;21.34;65.78;99535.97;7309939;19;129454;-37
2022/10/25 10:45:07;;;;;;;;;;;;;;;21.37;65.28;99532.28;7310096;19;129182;-39
2022/10/25 10:47:34;;;;;;;;;;;;;;;21.36;65.68;99531.44;7312039;19;131207;-37
2022/10/25 10:50:00;;;;;;;;;;;;;;;21.38;65.43;99521.66;7311808;19;129568;-38
2022/10/25 10:52:30;;;;;;;;;;;;;;;21.40;65.22;99538.00;7312167;19;129147;-39
2022/10/25 10:54:56;;;;;;;;;;;;;;;21.37;65.67;99530.47;7313067;19;129279;-42
2022/10/25 10:57:27;;;;;;;;;;;;;;;21.33;64.80;99539.56;7308100;19;130293;-38
2022/10/25 10:59:54;;;;;;;;;;;;;;;21.34;65.10;99532.53;7313120;19;130150;-39
2022/10/25 11:02:40;;;;;;;;;;;;;;;21.36;65.12;99533.22;7311920;19;130923;-38
2022/10/25 11:05:23;;;;;;;;;;;;;;;21.39;65.65;99536.38;7305064;19;130392;-39
2022/10/25 11:08:11;;;;;;;;;;;;;;;21.25;65.27;99513.28;7312148;19;129185;-37
2022/10/25 11:10:37;;;;;;;;;;;;;;;21.39;65.52;99538.16;7307584;19;130041;-37
2022/10/25 11:13:04;;;;;;;;;;;;;;;21.43;64.86;99548.22;7304825;19;129913;-38
2022/10/25 11:15:33;;;;;;;;;;;;;;;21.33;65.11;99529.09;7309160;19;129392;-39
2022/10/25 11:18:02;;;;;;;;;;;;;;;21.34;65.19;99548.22;7311582;19;128893;-39
2022/10/25 11:20:57;;;;;;;;;;;;;;;21.32;65.64;99539.69;7312189;19;129503;-38
2022/10/25 11:23:35;;;;;;;;;;;;;;;21.32;64.32;99537.91;7307645;19;129383;-38
2022/10/25 11:26:14;;;;;;;;;;;;;;;21.31;64.80;99538.88;7310351;19;129974;-39
2022/10/25 11:28:39;;;;;;;;;;;;;;;21.27;64.86;99542.72;7310604;19;129189;-37
2022/10/25 11:31:23;;;;;;;;;;;;;;;21.23;64.82;99541.34;7308645;19;129056;-38
2022/10/25 11:33:51;;;;;;;;;;;;;;;21.25;64.66;99533.38;7312970;19;130150;-40
2022/10/25 11:36:32;;;;;;;;;;;;;;;21.30;64.92;99542.47;7310757;19;129464;-39
2022/10/25 11:38:57;;;;;;;;;;;;;;;21.33;64.45;99542.19;7312154;19;128811;-37
2022/10/25 11:41:38;;;;;;;;;;;;;;;21.29;64.15;99532.13;7312936;19;130112;-38
2022/10/25 11:44:03;;;;;;;;;;;;;;;21.30;64.46;99542.47;7314184;19;129996;-37
2022/10/25 11:46:28;;;;;;;;;;;;;;;21.32;64.46;99535.28;7312634;19;130286;-40
2022/10/25 11:49:12;;;;;;;;;;;;;;;21.37;64.41;99537.50;7312178;19;129264;-38
2022/10/25 11:51:46;;;;;;;;;;;;;;;21.38;64.17;99539.13;7313517;19;129492;-38
2022/10/25 11:54:19;;;;;;;;;;;;;;;21.35;63.73;99540.25;7312950;19;129763;-39
2022/10/25 11:57:04;;;;;;;;;;;;;;;21.31;64.14;99543.25;7311528;19;129197;-38
2022/10/25 11:59:48;;;;;;;;;;;;;;;21.30;64.70;99542.47;7306825;19;130503;-37
2022/10/25 12:02:32;;;;;;;;;;;;;;;21.32;63.87;99540.50;7312217;19;129045;-38
2022/10/25 12:05:03;;;;;;;;;;;;;;;21.38;64.42;99549.59;7311633;19;129677;-40
2022/10/25 12:07:31;;;;;;;;;;;;;;;21.33;63.93;99542.19;7312434;19;129339;-39
2022/10/25 12:10:02;;;;;;;;;;;;;;;21.37;64.44;99554.00;7314314;19;129154;-38
2022/10/25 12:12:47;;;;;;;;;;;;;;;21.32;64.23;99540.50;7310260;19;130030;-38
2022/10/25 12:15:36;;;;;;;;;;;;;;;21.38;63.96;99549.59;7307224;19;129514;-38
2022/10/25 12:18:02;;;;;;;;;;;;;;;21.30;64.82;99536.41;7307128;19;129455;-39
2022/10/25 12:20:28;;;;;;;;;;;;;;;21.33;64.86;99542.19;7303296;19;129621;-41
2022/10/25 12:22:56;;;;;;;;;;;;;;;21.19;64.25;99529.50;7300553;19;130051;-40
2022/10/25 12:25:25;;;;;;;;;;;;;;;21.30;65.30;99547.69;7304936;19;130473;-40
2022/10/25 12:28:09;;;;;;;;;;;;;;;21.29;64.99;99546.03;7306144;19;129508;-39
2022/10/25 12:31:57;;;;;;;10.18;2.60;;;;;;;21.19;64.43;99544.41;7350392;19;130810;-36
2022/10/25 12:34:40;;;;;;;21.33;5.93;;;;;;;21.15;65.30;99543.84;7343760;19;129747;-37
2022/10/25 12:37:13;;;;;;;4.43;1.65;;;;;;;21.15;64.91;99538.63;7344656;19;131116;-38
2022/10/25 12:39:44;;;;;;;6.07;1.75;;;;;;;21.11;64.31;99547.69;7344192;19;129288;-36
2022/10/25 12:42:17;;;;;;;8.10;2.25;;;;;;;21.10;65.48;99545.22;7341166;19;129133;-36
2022/10/25 12:45:20;;;;;;;9.70;2.42;;;;;;;21.10;66.19;99551.28;7345292;19;129434;-37